Time;durP1;ratioP1;P1;durP2;ratioP2;P2;SDS_P1;SDS_P2;PMS_P1;PMS_P2;Temp;Humidity;BMP_temperature;BMP_pressure;BME280_temperature;BME280_humidity;BME280_pressure;Samples;Min_cycle;Max_cycle;Signal;HPM_P1;HPM_P2
2021/12/27 00:00:18;;;;;;;20.77;11.90;;;0.40;99.90;;;;;;5050690;28;20083;-69
2021/12/27 00:02:45;;;;;;;22.02;12.45;;;0.50;99.90;;;;;;5052857;28;20110;-69
2021/12/27 00:05:10;;;;;;;21.40;12.18;;;0.50;99.90;;;;;;5055660;28;20079;-68
2021/12/27 00:07:36;;;;;;;19.42;12.00;;;0.50;99.90;;;;;;5057988;28;20448;-68
2021/12/27 00:10:04;;;;;;;24.08;13.05;;;0.50;99.90;;;;;;5058917;28;20052;-69
2021/12/27 00:12:29;;;;;;;23.27;12.15;;;0.50;99.90;;;;;;5058262;28;20045;-68
2021/12/27 00:14:55;;;;;;;21.00;12.25;;;0.50;99.90;;;;;;5052776;28;20520;-68
2021/12/27 00:17:20;;;;;;;20.83;11.55;;;0.60;99.90;;;;;;5052899;28;20120;-68
2021/12/27 00:19:47;;;;;;;21.08;12.40;;;0.60;99.90;;;;;;5069365;28;20106;-68
2021/12/27 00:22:13;;;;;;;21.60;12.45;;;0.60;99.90;;;;;;5048745;28;20097;-69
2021/12/27 00:24:38;;;;;;;19.65;11.90;;;0.60;99.90;;;;;;5056757;28;20044;-69
2021/12/27 00:27:04;;;;;;;23.65;12.55;;;0.60;99.90;;;;;;5050456;28;20341;-69
2021/12/27 00:29:30;;;;;;;20.15;12.27;;;0.60;99.90;;;;;;5048685;28;20033;-70
2021/12/27 00:31:56;;;;;;;20.73;12.77;;;0.60;99.90;;;;;;5048580;28;20426;-68
2021/12/27 00:34:21;;;;;;;20.48;11.82;;;0.60;99.90;;;;;;5056969;28;20049;-68
2021/12/27 00:36:47;;;;;;;22.00;12.93;;;0.70;99.90;;;;;;5058331;28;20059;-68
2021/12/27 00:39:13;;;;;;;20.25;12.43;;;0.70;99.90;;;;;;5052599;28;20048;-68
2021/12/27 00:41:38;;;;;;;23.05;12.88;;;0.70;99.90;;;;;;5056316;28;20102;-69
2021/12/27 00:44:04;;;;;;;20.33;12.32;;;0.70;99.90;;;;;;5060526;28;20048;-68
2021/12/27 00:46:30;;;;;;;21.88;11.90;;;0.70;99.90;;;;;;5055866;28;20037;-68
2021/12/27 00:48:55;;;;;;;22.05;12.38;;;0.70;99.90;;;;;;5056541;28;20132;-68
2021/12/27 00:51:21;;;;;;;22.00;12.38;;;0.70;99.90;;;;;;5054591;28;20037;-69
2021/12/27 00:53:46;;;;;;;23.15;13.32;;;0.70;99.90;;;;;;5060702;28;20495;-68
2021/12/27 00:56:12;;;;;;;20.73;12.25;;;0.70;99.90;;;;;;5062005;28;20041;-69
2021/12/27 00:58:37;;;;;;;23.25;12.52;;;0.70;99.90;;;;;;5052680;28;20041;-68
2021/12/27 01:01:03;;;;;;;22.88;13.32;;;0.70;99.90;;;;;;5058082;28;20229;-68
2021/12/27 01:03:29;;;;;;;22.42;12.35;;;0.70;99.90;;;;;;5048493;28;20498;-68
2021/12/27 01:05:54;;;;;;;22.23;12.73;;;0.70;99.90;;;;;;5054200;28;20040;-68
2021/12/27 01:08:20;;;;;;;23.25;12.68;;;0.70;99.90;;;;;;5062323;28;20106;-68
2021/12/27 01:13:47;;;;;;;25.67;13.63;;;0.80;99.90;;;;;;5036451;28;20064;-68
2021/12/27 01:16:15;;;;;;;21.85;12.35;;;0.80;99.90;;;;;;5057584;28;20447;-68
2021/12/27 01:18:47;;;;;;;22.67;12.52;;;0.80;99.90;;;;;;5056519;28;20139;-68
2021/12/27 01:21:14;;;;;;;22.27;12.82;;;0.80;99.90;;;;;;5070346;28;20045;-67
2021/12/27 01:23:40;;;;;;;22.73;13.80;;;0.80;99.90;;;;;;5055647;28;20045;-68
2021/12/27 01:26:06;;;;;;;22.98;13.68;;;0.80;99.90;;;;;;5057175;28;20055;-68
2021/12/27 01:28:31;;;;;;;22.33;12.98;;;0.80;99.90;;;;;;5058456;28;20032;-67
2021/12/27 01:30:57;;;;;;;24.65;13.27;;;0.80;99.90;;;;;;5055082;28;20072;-68
2021/12/27 01:33:23;;;;;;;23.85;14.32;;;0.80;99.90;;;;;;5060072;28;20040;-68
2021/12/27 01:35:49;;;;;;;24.38;13.93;;;0.80;99.90;;;;;;5060292;28;20076;-68
2021/12/27 01:38:15;;;;;;;22.40;13.68;;;0.80;99.90;;;;;;5058739;28;20088;-67
2021/12/27 01:40:43;;;;;;;24.85;13.68;;;0.80;99.90;;;;;;5059661;28;20059;-67
2021/12/27 01:43:13;;;;;;;23.27;13.00;;;0.80;99.90;;;;;;5059166;28;20033;-67
2021/12/27 01:45:42;;;;;;;22.55;13.38;;;0.90;99.90;;;;;;5055336;28;20049;-67
2021/12/27 01:48:09;;;;;;;23.65;14.00;;;0.80;99.90;;;;;;5056353;28;20070;-68
2021/12/27 01:50:41;;;;;;;22.55;11.93;;;0.80;99.90;;;;;;5056910;28;20424;-67
2021/12/27 01:53:08;;;;;;;23.48;13.82;;;0.90;99.90;;;;;;5053945;28;20044;-67
2021/12/27 01:55:34;;;;;;;25.45;14.15;;;0.90;99.90;;;;;;5054983;28;20044;-68
2021/12/27 01:58:00;;;;;;;23.55;13.50;;;0.90;99.90;;;;;;5055120;28;20463;-68
2021/12/27 02:00:27;;;;;;;22.08;13.43;;;0.90;99.90;;;;;;5058008;28;20049;-68
2021/12/27 02:02:53;;;;;;;22.98;12.50;;;0.90;99.90;;;;;;5057775;28;20139;-67
2021/12/27 02:05:19;;;;;;;23.77;13.48;;;0.90;99.90;;;;;;5054292;28;20185;-68
2021/12/27 02:07:45;;;;;;;23.42;13.85;;;0.90;99.90;;;;;;5060403;28;20136;-68
2021/12/27 02:10:12;;;;;;;24.55;14.15;;;0.90;99.90;;;;;;5061757;28;20152;-68
2021/12/27 02:12:39;;;;;;;25.70;13.75;;;0.90;99.90;;;;;;5056252;28;20037;-68
2021/12/27 02:15:09;;;;;;;25.08;13.50;;;0.90;99.90;;;;;;5061217;28;20130;-68
2021/12/27 02:17:36;;;;;;;26.48;15.00;;;0.90;99.90;;;;;;5073729;28;20049;-68
2021/12/27 02:20:05;;;;;;;23.45;14.38;;;0.90;99.90;;;;;;5053415;28;20118;-68
2021/12/27 02:22:35;;;;;;;26.10;15.65;;;0.90;99.90;;;;;;5058632;28;20048;-67
2021/12/27 02:25:03;;;;;;;26.05;15.73;;;0.90;99.90;;;;;;5052630;28;20713;-68
2021/12/27 02:27:29;;;;;;;23.35;14.60;;;0.90;99.90;;;;;;5051760;28;20040;-67
2021/12/27 02:29:54;;;;;;;26.35;14.95;;;0.90;99.90;;;;;;5062480;28;20047;-68
2021/12/27 02:32:20;;;;;;;28.02;15.32;;;0.90;99.90;;;;;;5053627;28;20072;-67
2021/12/27 02:34:45;;;;;;;25.67;15.50;;;0.90;99.90;;;;;;5055341;28;20135;-67
2021/12/27 02:37:11;;;;;;;27.48;16.23;;;0.90;99.90;;;;;;5053319;28;20033;-68
2021/12/27 02:39:36;;;;;;;28.38;15.90;;;0.90;99.90;;;;;;5058925;28;20041;-67
2021/12/27 02:42:02;;;;;;;27.55;15.68;;;0.90;99.90;;;;;;5052705;28;20052;-67
2021/12/27 02:44:28;;;;;;;25.20;14.13;;;0.90;99.90;;;;;;5052892;28;20040;-67
2021/12/27 02:46:53;;;;;;;27.90;15.93;;;0.90;99.90;;;;;;5054609;28;20040;-66
2021/12/27 02:49:19;;;;;;;29.92;16.70;;;0.90;99.90;;;;;;5056747;28;20032;-67
2021/12/27 02:51:44;;;;;;;29.17;16.33;;;0.80;99.90;;;;;;5050577;28;20626;-66
2021/12/27 02:54:10;;;;;;;27.63;16.05;;;0.90;99.90;;;;;;5056620;28;20121;-66
2021/12/27 02:56:36;;;;;;;27.27;15.75;;;0.80;99.90;;;;;;5050078;28;20547;-66
2021/12/27 02:59:01;;;;;;;29.27;16.38;;;0.90;99.90;;;;;;5058821;28;20531;-68
2021/12/27 03:01:28;;;;;;;28.58;15.30;;;0.90;99.90;;;;;;5059796;28;20133;-66
2021/12/27 03:03:55;;;;;;;30.20;16.77;;;0.90;99.90;;;;;;5057615;28;20048;-66
2021/12/27 03:06:21;;;;;;;28.50;16.35;;;0.90;99.90;;;;;;5053945;28;20460;-66
2021/12/27 03:08:48;;;;;;;28.63;16.52;;;0.90;99.90;;;;;;5050701;28;20139;-66
2021/12/27 03:11:14;;;;;;;25.05;15.88;;;0.90;99.90;;;;;;5054816;28;20448;-66
2021/12/27 03:13:45;;;;;;;28.45;15.60;;;0.90;99.90;;;;;;5056390;28;20044;-66
2021/12/27 03:16:14;;;;;;;26.02;15.43;;;0.90;99.90;;;;;;5055172;28;20072;-66
2021/12/27 03:18:42;;;;;;;26.23;14.98;;;0.90;99.90;;;;;;5054713;28;20384;-66
2021/12/27 03:21:08;;;;;;;29.45;16.85;;;0.90;99.90;;;;;;5056130;28;20053;-66
2021/12/27 03:23:35;;;;;;;29.35;17.00;;;1.00;99.90;;;;;;5053918;28;20047;-65
2021/12/27 03:26:00;;;;;;;29.92;16.05;;;0.90;99.90;;;;;;5051944;28;20060;-66
2021/12/27 03:28:26;;;;;;;30.33;16.42;;;0.90;99.90;;;;;;5052193;28;20036;-66
2021/12/27 03:30:52;;;;;;;29.02;16.42;;;1.00;99.90;;;;;;5054973;28;20036;-65
2021/12/27 03:33:21;;;;;;;29.08;15.95;;;1.00;99.90;;;;;;5054597;28;20032;-66
2021/12/27 03:36:04;;;;;;;27.20;16.20;;;1.00;99.90;;;;;;5055888;28;20074;-68
2021/12/27 03:38:34;;;;;;;28.23;16.15;;;1.00;99.90;;;;;;5051506;28;20037;-65
2021/12/27 03:41:03;;;;;;;29.60;16.60;;;1.00;99.90;;;;;;5048375;28;20096;-66
2021/12/27 03:43:29;;;;;;;26.95;16.17;;;1.00;99.90;;;;;;5055466;28;20060;-67
2021/12/27 03:45:54;;;;;;;27.00;15.48;;;1.00;99.90;;;;;;5052866;28;20175;-66
2021/12/27 03:48:20;;;;;;;29.15;16.25;;;1.00;99.90;;;;;;5052265;28;20036;-66
2021/12/27 03:50:46;;;;;;;27.05;15.55;;;1.00;99.90;;;;;;5048469;28;20060;-66
2021/12/27 03:53:11;;;;;;;28.98;17.30;;;1.10;99.90;;;;;;5055352;28;20122;-66
2021/12/27 03:55:37;;;;;;;29.10;15.73;;;1.00;99.90;;;;;;5057561;28;20617;-66
2021/12/27 03:58:23;;;;;;;27.40;15.77;;;1.00;99.90;;;;;;5051650;28;20108;-66
2021/12/27 04:01:01;;;;;;;28.58;16.27;;;1.00;99.90;;;;;;5051560;28;20052;-66
2021/12/27 04:03:29;;;;;;;26.45;16.52;;;1.00;99.90;;;;;;5052944;28;20159;-65
2021/12/27 04:05:55;;;;;;;28.75;16.40;;;1.10;99.90;;;;;;5052690;28;20048;-65
2021/12/27 04:08:22;;;;;;;27.80;16.55;;;1.00;99.90;;;;;;5057624;28;20048;-65
2021/12/27 04:10:48;;;;;;;30.38;16.42;;;1.10;99.90;;;;;;5051697;28;20365;-65
2021/12/27 04:13:18;;;;;;;27.85;16.45;;;1.10;99.90;;;;;;5059014;28;20037;-66
2021/12/27 04:15:44;;;;;;;29.35;16.10;;;1.10;99.90;;;;;;5055938;28;20463;-66
2021/12/27 04:18:11;;;;;;;28.27;15.85;;;1.10;99.90;;;;;;5060323;28;20049;-65
2021/12/27 04:20:37;;;;;;;28.40;16.52;;;1.10;99.90;;;;;;5056863;28;20044;-66
2021/12/27 04:23:03;;;;;;;30.40;16.30;;;1.10;99.90;;;;;;5053220;28;20060;-65
2021/12/27 04:25:28;;;;;;;29.13;16.70;;;1.10;99.90;;;;;;5061069;28;20383;-65
2021/12/27 04:27:54;;;;;;;28.90;16.83;;;1.10;99.90;;;;;;5059052;28;20102;-67
2021/12/27 04:30:20;;;;;;;28.35;16.20;;;1.10;99.90;;;;;;5053646;28;20041;-66
2021/12/27 04:32:47;;;;;;;28.13;16.98;;;1.10;99.90;;;;;;5058971;28;20086;-66
2021/12/27 04:35:13;;;;;;;31.52;16.35;;;1.10;99.90;;;;;;5056118;28;20044;-66
2021/12/27 04:37:41;;;;;;;27.98;15.48;;;1.10;99.90;;;;;;5057568;28;20056;-66
2021/12/27 04:40:11;;;;;;;27.92;15.85;;;1.10;99.90;;;;;;5054059;28;20049;-65
2021/12/27 04:42:38;;;;;;;29.20;16.02;;;1.20;99.90;;;;;;5053383;28;20056;-66
2021/12/27 04:45:05;;;;;;;28.27;16.50;;;1.10;99.90;;;;;;5057890;28;20483;-66
2021/12/27 04:47:31;;;;;;;30.38;16.92;;;1.10;99.90;;;;;;5056674;28;20075;-66
2021/12/27 04:49:57;;;;;;;28.23;16.27;;;1.20;99.90;;;;;;5055677;28;20106;-66
2021/12/27 04:52:22;;;;;;;29.23;16.52;;;1.20;99.90;;;;;;5062937;28;20144;-68
2021/12/27 04:54:48;;;;;;;30.75;17.42;;;1.10;99.90;;;;;;5057445;28;20052;-66
2021/12/27 04:57:13;;;;;;;29.30;16.33;;;1.20;99.90;;;;;;5052313;28;20045;-66
2021/12/27 04:59:39;;;;;;;28.60;17.60;;;1.20;99.90;;;;;;5057152;28;20048;-66
2021/12/27 05:02:05;;;;;;;31.73;16.52;;;1.20;99.90;;;;;;5056866;28;20101;-66
2021/12/27 05:04:31;;;;;;;30.65;16.83;;;1.20;99.90;;;;;;5041237;28;20522;-66
2021/12/27 05:06:56;;;;;;;28.92;17.02;;;1.20;99.90;;;;;;5057293;28;20356;-67
2021/12/27 05:09:22;;;;;;;27.73;15.88;;;1.20;99.90;;;;;;5055997;28;20052;-66
2021/12/27 05:11:47;;;;;;;28.67;16.83;;;1.20;99.90;;;;;;5054224;28;20044;-66
2021/12/27 05:14:14;;;;;;;28.58;16.92;;;1.20;99.90;;;;;;5053418;28;20590;-66
2021/12/27 05:16:40;;;;;;;32.25;17.98;;;1.20;99.90;;;;;;5054853;28;20041;-66
2021/12/27 05:19:05;;;;;;;28.88;17.52;;;1.20;99.90;;;;;;5064116;28;20348;-66
2021/12/27 05:21:31;;;;;;;28.17;17.38;;;1.20;99.90;;;;;;5064574;28;20068;-66
2021/12/27 05:23:57;;;;;;;27.65;16.40;;;1.20;99.90;;;;;;5054704;28;20143;-66
2021/12/27 05:26:22;;;;;;;28.65;16.23;;;1.20;99.90;;;;;;5060027;28;20044;-67
2021/12/27 05:28:48;;;;;;;30.02;17.30;;;1.20;99.90;;;;;;5055412;28;20064;-66
2021/12/27 05:31:13;;;;;;;36.25;18.90;;;1.20;99.90;;;;;;5058255;28;20448;-66
2021/12/27 05:33:39;;;;;;;31.25;16.92;;;1.20;99.90;;;;;;5057188;28;20120;-66
2021/12/27 05:36:05;;;;;;;31.20;18.05;;;1.20;99.90;;;;;;5057766;28;20110;-65
2021/12/27 05:38:30;;;;;;;31.38;17.40;;;1.30;99.90;;;;;;5055056;28;20105;-67
2021/12/27 05:40:56;;;;;;;30.52;17.65;;;1.20;99.90;;;;;;5056239;28;20060;-66
2021/12/27 05:43:24;;;;;;;34.33;18.45;;;1.30;99.90;;;;;;5061211;28;20139;-66
2021/12/27 05:45:50;;;;;;;32.13;18.85;;;1.30;99.90;;;;;;5053102;28;20465;-66
2021/12/27 05:48:16;;;;;;;33.40;17.70;;;1.30;99.90;;;;;;5055633;28;20126;-66
2021/12/27 05:50:42;;;;;;;32.25;18.00;;;1.30;99.90;;;;;;5057821;28;20047;-66
2021/12/27 05:53:11;;;;;;;32.33;18.98;;;1.30;99.90;;;;;;5053498;28;20120;-66
2021/12/27 05:55:37;;;;;;;34.28;18.20;;;1.30;99.90;;;;;;5050366;28;20037;-67
2021/12/27 05:58:03;;;;;;;32.40;17.77;;;1.30;99.90;;;;;;5049768;28;20393;-67
2021/12/27 06:00:29;;;;;;;31.17;18.52;;;1.30;99.90;;;;;;5050811;28;20150;-67
2021/12/27 06:02:55;;;;;;;33.45;18.27;;;1.30;99.90;;;;;;5057376;28;20491;-67
2021/12/27 06:05:24;;;;;;;37.72;20.50;;;1.30;99.90;;;;;;5051914;28;20029;-67
2021/12/27 06:07:50;;;;;;;32.30;19.17;;;1.30;99.90;;;;;;5048251;28;20052;-68
2021/12/27 06:10:19;;;;;;;36.47;19.63;;;1.30;99.90;;;;;;5052139;28;20049;-67
2021/12/27 06:12:46;;;;;;;36.78;19.85;;;1.40;99.90;;;;;;5050532;28;20064;-68
2021/12/27 06:15:12;;;;;;;38.35;19.20;;;1.30;99.90;;;;;;5051359;28;20036;-67
2021/12/27 06:17:39;;;;;;;36.65;20.20;;;1.30;99.90;;;;;;5049454;28;20041;-67
2021/12/27 06:20:08;;;;;;;35.70;19.67;;;1.30;99.90;;;;;;5050804;28;20182;-67
2021/12/27 06:22:35;;;;;;;40.13;19.95;;;1.40;99.90;;;;;;5050137;28;20489;-65
2021/12/27 06:25:03;;;;;;;38.58;19.42;;;1.40;99.90;;;;;;5050737;28;20414;-67
2021/12/27 06:27:31;;;;;;;35.33;19.20;;;1.40;99.90;;;;;;5049203;28;20077;-68
2021/12/27 06:29:57;;;;;;;34.47;19.20;;;1.40;99.90;;;;;;5050293;28;20098;-68
2021/12/27 06:32:23;;;;;;;38.10;18.73;;;1.40;99.90;;;;;;5049695;28;20041;-68
2021/12/27 06:34:48;;;;;;;40.95;21.30;;;1.40;99.90;;;;;;5034852;28;20441;-67
2021/12/27 06:37:14;;;;;;;37.40;18.95;;;1.40;99.90;;;;;;5049743;28;20106;-67
2021/12/27 06:39:39;;;;;;;40.55;19.30;;;1.40;99.90;;;;;;5050417;28;20068;-67
2021/12/27 06:42:06;;;;;;;43.80;20.70;;;1.40;99.90;;;;;;5048160;28;20052;-68
2021/12/27 06:44:32;;;;;;;44.63;21.10;;;1.40;99.90;;;;;;5050283;28;20117;-67
2021/12/27 06:46:59;;;;;;;44.53;19.33;;;1.40;99.90;;;;;;5050602;28;20055;-67
2021/12/27 06:49:27;;;;;;;47.20;21.65;;;1.40;99.90;;;;;;5051058;28;20048;-67
2021/12/27 06:51:52;;;;;;;40.97;19.65;;;1.40;99.90;;;;;;5050104;28;20040;-67
2021/12/27 06:54:19;;;;;;;39.15;19.35;;;1.50;99.90;;;;;;5046613;28;20051;-67
2021/12/27 06:56:45;;;;;;;44.53;19.88;;;1.40;99.90;;;;;;5048587;28;20067;-67
2021/12/27 06:59:10;;;;;;;44.70;20.58;;;1.50;99.90;;;;;;5050860;28;20056;-67
2021/12/27 07:01:36;;;;;;;50.05;21.60;;;1.40;99.90;;;;;;5049441;28;20040;-67
2021/12/27 07:04:02;;;;;;;42.78;20.88;;;1.50;99.90;;;;;;5047903;28;20506;-68
2021/12/27 07:06:27;;;;;;;46.95;21.45;;;1.50;99.90;;;;;;5048650;28;20091;-67
2021/12/27 07:08:53;;;;;;;48.40;21.38;;;1.50;99.90;;;;;;5054764;28;20186;-68
2021/12/27 07:11:18;;;;;;;43.97;21.08;;;1.50;99.90;;;;;;5053770;28;20455;-68
2021/12/27 07:13:44;;;;;;;52.42;22.02;;;1.50;99.90;;;;;;5061382;28;20153;-67
2021/12/27 07:16:09;;;;;;;45.45;20.83;;;1.50;99.90;;;;;;5043397;28;20036;-67
2021/12/27 07:18:35;;;;;;;58.80;23.15;;;1.50;99.90;;;;;;5052716;28;20068;-68
2021/12/27 07:21:00;;;;;;;54.63;22.17;;;1.50;99.90;;;;;;5052279;28;20056;-68
2021/12/27 07:23:26;;;;;;;53.72;22.40;;;1.60;99.90;;;;;;5048467;28;20452;-67
2021/12/27 07:25:52;;;;;;;51.45;22.30;;;1.50;99.90;;;;;;5050097;28;20534;-68
2021/12/27 07:28:17;;;;;;;54.75;23.42;;;1.50;99.90;;;;;;5049301;28;20657;-67
2021/12/27 07:30:43;;;;;;;54.03;22.92;;;1.50;99.90;;;;;;5049794;28;20064;-67
2021/12/27 07:33:09;;;;;;;54.63;22.23;;;1.60;99.90;;;;;;5052360;28;20047;-69
2021/12/27 07:35:35;;;;;;;51.35;22.27;;;1.60;99.90;;;;;;5053609;28;20053;-67
2021/12/27 07:38:01;;;;;;;51.22;22.42;;;1.60;99.90;;;;;;5047967;28;20049;-67
2021/12/27 07:40:28;;;;;;;52.45;22.40;;;1.60;99.90;;;;;;5051768;28;20048;-67
2021/12/27 07:42:53;;;;;;;46.20;21.40;;;1.60;99.90;;;;;;5052034;28;20045;-66
2021/12/27 07:45:19;;;;;;;47.58;20.50;;;1.60;99.90;;;;;;5053819;28;20503;-66
2021/12/27 07:47:45;;;;;;;46.08;21.25;;;1.60;99.90;;;;;;5050878;28;20542;-66
2021/12/27 07:50:10;;;;;;;46.05;21.95;;;1.60;99.90;;;;;;5052464;28;20074;-65
2021/12/27 07:52:36;;;;;;;52.97;22.20;;;1.60;99.90;;;;;;5059705;28;20041;-66
2021/12/27 07:55:02;;;;;;;54.55;23.40;;;1.70;99.90;;;;;;5057085;28;20040;-66
2021/12/27 07:57:27;;;;;;;60.65;22.15;;;1.70;99.90;;;;;;5053740;28;20076;-66
2021/12/27 07:59:53;;;;;;;51.65;22.25;;;1.70;99.90;;;;;;5059027;28;20079;-66
2021/12/27 08:02:24;;;;;;;48.67;20.67;;;1.70;99.90;;;;;;5051384;28;20472;-65
2021/12/27 08:04:50;;;;;;;50.78;21.45;;;1.70;99.90;;;;;;5054325;28;20064;-67
2021/12/27 08:07:15;;;;;;;49.10;20.70;;;1.70;99.90;;;;;;5066760;28;20048;-67
2021/12/27 08:09:41;;;;;;;43.70;20.33;;;1.70;99.90;;;;;;5059132;28;20041;-67
2021/12/27 08:12:09;;;;;;;47.05;21.02;;;1.70;99.90;;;;;;5059085;28;20387;-67
2021/12/27 08:14:35;;;;;;;45.80;21.05;;;1.70;99.90;;;;;;5061112;28;20068;-67
2021/12/27 08:17:01;;;;;;;50.33;20.95;;;1.70;99.90;;;;;;5058907;28;20049;-64
2021/12/27 08:19:26;;;;;;;47.88;19.85;;;1.80;99.90;;;;;;5059589;28;20067;-66
2021/12/27 08:21:55;;;;;;;47.13;21.20;;;1.80;99.90;;;;;;5053742;28;20200;-66
2021/12/27 08:24:21;;;;;;;43.78;19.35;;;1.80;99.90;;;;;;5059238;28;20041;-65
2021/12/27 08:26:47;;;;;;;37.97;19.10;;;1.80;99.90;;;;;;5054261;28;20136;-67
2021/12/27 08:29:13;;;;;;;39.00;19.23;;;1.80;99.90;;;;;;5062067;28;20476;-65
2021/12/27 08:31:38;;;;;;;42.22;19.80;;;1.80;99.90;;;;;;5068680;28;20037;-66
2021/12/27 08:34:13;;;;;;;41.42;19.60;;;1.90;99.90;;;;;;5065548;28;20037;-65
2021/12/27 08:36:38;;;;;;;49.23;20.70;;;1.80;99.90;;;;;;5058536;28;20036;-66
2021/12/27 08:39:04;;;;;;;53.13;20.10;;;1.90;99.90;;;;;;5057734;28;21064;-67
2021/12/27 08:41:30;;;;;;;45.80;20.35;;;1.90;99.90;;;;;;5053375;28;20119;-66
2021/12/27 08:43:58;;;;;;;54.80;22.40;;;1.90;99.90;;;;;;5052977;28;20540;-67
2021/12/27 08:46:24;;;;;;;50.20;20.27;;;1.90;99.90;;;;;;5052775;28;20101;-65
2021/12/27 08:48:49;;;;;;;48.03;21.13;;;1.90;99.90;;;;;;5056213;28;20037;-66
2021/12/27 08:51:15;;;;;;;51.60;21.92;;;1.90;99.90;;;;;;5054352;28;20048;-65
2021/12/27 08:53:41;;;;;;;53.08;21.60;;;2.00;99.90;;;;;;5058584;28;20115;-65
2021/12/27 08:56:07;;;;;;;57.60;21.80;;;2.00;99.90;;;;;;5059469;28;20055;-66
2021/12/27 08:58:32;;;;;;;64.32;23.10;;;2.00;99.90;;;;;;5060713;28;20116;-67
2021/12/27 09:00:58;;;;;;;52.53;22.67;;;2.00;99.90;;;;;;5062928;28;20048;-67
2021/12/27 09:03:23;;;;;;;52.85;21.02;;;2.00;99.90;;;;;;5061634;28;20044;-67
2021/12/27 09:05:49;;;;;;;72.50;23.67;;;2.10;99.90;;;;;;5057719;28;20085;-66
2021/12/27 09:08:17;;;;;;;56.33;22.00;;;2.10;99.90;;;;;;5056754;28;20128;-66
2021/12/27 09:10:43;;;;;;;54.38;22.02;;;2.10;99.90;;;;;;5054421;28;20452;-65
2021/12/27 09:13:11;;;;;;;61.60;22.85;;;2.20;99.90;;;;;;5064929;28;20041;-65
2021/12/27 09:15:37;;;;;;;60.35;22.88;;;2.20;99.90;;;;;;5054619;28;20510;-65
2021/12/27 09:18:02;;;;;;;60.17;22.42;;;2.30;99.90;;;;;;5063582;28;20068;-67
2021/12/27 09:20:28;;;;;;;53.92;21.58;;;2.20;99.90;;;;;;5066176;28;20578;-66
2021/12/27 09:22:54;;;;;;;77.45;24.35;;;2.30;99.90;;;;;;5058265;28;20051;-65
2021/12/27 09:25:20;;;;;;;57.10;21.75;;;2.30;99.90;;;;;;5057944;28;20142;-66
2021/12/27 09:27:45;;;;;;;57.72;22.45;;;2.30;99.90;;;;;;5059956;28;20115;-66
2021/12/27 09:30:11;;;;;;;58.40;21.85;;;2.40;99.90;;;;;;5060237;28;20493;-67
2021/12/27 09:32:37;;;;;;;62.65;24.60;;;2.40;99.90;;;;;;5058485;28;20520;-67
2021/12/27 09:35:04;;;;;;;65.13;24.05;;;2.40;99.90;;;;;;5056659;28;20242;-66
2021/12/27 09:37:30;;;;;;;64.72;23.27;;;2.50;99.90;;;;;;5055251;28;20040;-66
2021/12/27 09:39:56;;;;;;;51.22;21.40;;;2.50;99.90;;;;;;5053870;28;20036;-67
2021/12/27 09:42:24;;;;;;;60.85;23.08;;;2.50;99.90;;;;;;5064011;28;20041;-66
2021/12/27 09:44:51;;;;;;;59.80;22.90;;;2.60;99.90;;;;;;5052814;28;20103;-67
2021/12/27 09:47:17;;;;;;;60.08;22.75;;;2.60;99.90;;;;;;5053723;28;20116;-66
2021/12/27 09:49:44;;;;;;;57.10;22.10;;;2.60;99.90;;;;;;5060858;28;20098;-68
2021/12/27 09:52:11;;;;;;;60.28;23.10;;;2.60;99.90;;;;;;5051596;28;21955;-66
2021/12/27 09:54:37;;;;;;;58.05;22.77;;;2.70;99.90;;;;;;5060018;28;20051;-68
2021/12/27 09:57:03;;;;;;;85.80;26.33;;;2.70;99.90;;;;;;5057784;28;20353;-71
2021/12/27 09:59:29;;;;;;;73.25;23.20;;;2.70;99.90;;;;;;5062698;28;20090;-67
2021/12/27 10:01:55;;;;;;;58.50;22.05;;;2.70;99.90;;;;;;5055744;28;20114;-67
2021/12/27 10:04:21;;;;;;;62.75;22.42;;;2.70;99.90;;;;;;5053600;28;20033;-68
2021/12/27 10:06:49;;;;;;;62.33;23.75;;;2.70;99.90;;;;;;5056599;28;20476;-66
2021/12/27 10:09:15;;;;;;;60.38;22.42;;;2.80;99.90;;;;;;5051523;28;20053;-65
2021/12/27 10:11:44;;;;;;;65.60;23.42;;;2.80;99.90;;;;;;5052618;28;20049;-69
2021/12/27 10:14:13;;;;;;;67.72;23.70;;;2.90;99.90;;;;;;5051968;28;20033;-67
2021/12/27 10:16:44;;;;;;;65.32;23.58;;;2.90;99.90;;;;;;5052363;28;20063;-66
2021/12/27 10:19:11;;;;;;;50.70;21.50;;;3.00;99.90;;;;;;5057528;28;20044;-66
2021/12/27 10:21:41;;;;;;;58.08;21.90;;;3.00;99.90;;;;;;5056358;28;20150;-66
2021/12/27 10:24:27;;;;;;;57.30;21.48;;;3.00;99.90;;;;;;5054537;28;20044;-67
2021/12/27 10:26:53;;;;;;;;;;;3.10;99.90;;;;;;5050504;28;20047;-67
2021/12/27 10:29:25;;;;;;;53.92;20.85;;;3.10;99.90;;;;;;5058547;28;20005;-68
2021/12/27 10:32:04;;;;;;;60.78;22.83;;;3.10;99.90;;;;;;5059628;28;20159;-69
2021/12/27 10:34:50;;;;;;;58.00;22.88;;;3.20;99.90;;;;;;5053046;28;20063;-67
2021/12/27 10:37:21;;;;;;;66.80;23.80;;;3.30;99.90;;;;;;5048569;28;20545;-67
2021/12/27 10:39:55;;;;;;;67.10;23.15;;;3.40;99.90;;;;;;5065607;28;20094;-66
2021/12/27 10:42:23;;;;;;;66.80;23.95;;;3.40;99.90;;;;;;5062755;28;20054;-66
2021/12/27 10:44:51;;;;;;;58.97;23.65;;;3.40;99.90;;;;;;5059763;28;20411;-67
2021/12/27 10:47:37;;;;;;;63.58;22.98;;;3.40;99.90;;;;;;5056100;28;20040;-66
2021/12/27 10:50:17;;;;;;;60.47;23.70;;;3.50;99.90;;;;;;5056779;28;20072;-67
2021/12/27 10:52:54;;;;;;;59.42;21.85;;;3.50;99.90;;;;;;5061092;28;20171;-67
2021/12/27 10:55:46;;;;;;;59.80;23.85;;;3.50;99.90;;;;;;5051774;28;20068;-68
2021/12/27 10:58:14;;;;;;;65.85;22.85;;;3.50;99.90;;;;;;5057799;28;20036;-67
2021/12/27 11:00:41;;;;;;;60.70;22.70;;;3.50;99.90;;;;;;5053353;28;20106;-66
2021/12/27 11:03:07;;;;;;;59.38;23.83;;;3.50;99.90;;;;;;5056039;28;20219;-68
2021/12/27 11:05:35;;;;;;;62.45;23.05;;;3.40;99.90;;;;;;5059227;28;20203;-70
2021/12/27 11:08:05;;;;;;;62.15;23.95;;;3.50;99.90;;;;;;5060004;28;20052;-69
2021/12/27 11:10:34;;;;;;;66.35;23.25;;;3.50;99.90;;;;;;5059739;28;20211;-68
2021/12/27 11:13:00;;;;;;;71.45;25.52;;;3.50;99.90;;;;;;5056101;28;20056;-68
2021/12/27 11:15:30;;;;;;;67.43;24.67;;;3.50;99.90;;;;;;5053315;28;20259;-68
2021/12/27 11:17:56;;;;;;;72.38;25.02;;;3.50;99.90;;;;;;5061169;28;20045;-69
2021/12/27 11:20:23;;;;;;;71.63;23.88;;;3.50;99.90;;;;;;5049220;28;20059;-67
2021/12/27 11:22:52;;;;;;;71.43;24.65;;;3.60;99.90;;;;;;5061093;28;20444;-67
2021/12/27 11:25:20;;;;;;;71.35;24.80;;;3.60;99.90;;;;;;5050201;28;20041;-66
2021/12/27 11:27:46;;;;;;;86.45;26.55;;;3.70;99.90;;;;;;5052029;28;20059;-68
2021/12/27 11:30:13;;;;;;;70.10;24.67;;;3.70;99.90;;;;;;5059591;28;20049;-69
2021/12/27 11:33:01;;;;;;;74.97;24.88;;;3.70;99.90;;;;;;5051975;28;20562;-68
2021/12/27 11:35:32;;;;;;;75.43;25.17;;;3.70;99.90;;;;;;5058004;28;20201;-68
2021/12/27 11:38:01;;;;;;;71.07;25.92;;;3.70;99.90;;;;;;5066336;28;20040;-68
2021/12/27 11:40:42;;;;;;;85.55;25.27;;;3.80;99.90;;;;;;5062600;28;20488;-70
2021/12/27 11:43:09;;;;;;;74.85;25.42;;;3.80;99.90;;;;;;5060886;28;20080;-69
2021/12/27 11:45:42;;;;;;;77.43;24.75;;;3.80;99.90;;;;;;5056850;28;20133;-71
2021/12/27 11:48:19;;;;;;;77.75;26.23;;;3.80;99.90;;;;;;5055982;28;20399;-67
2021/12/27 11:50:56;;;;;;;72.88;25.50;;;3.90;99.90;;;;;;5048508;28;20102;-67
2021/12/27 11:53:31;;;;;;;71.22;26.17;;;3.90;99.90;;;;;;5054143;28;20388;-68
2021/12/27 11:55:57;;;;;;;62.75;24.13;;;3.90;99.90;;;;;;5058171;28;20122;-69
2021/12/27 11:58:37;;;;;;;66.68;26.05;;;4.00;99.90;;;;;;5055160;28;20459;-69
2021/12/27 12:01:21;;;;;;;75.30;27.17;;;4.00;99.90;;;;;;5063138;28;20037;-68
2021/12/27 12:03:48;;;;;;;75.25;26.42;;;4.10;99.90;;;;;;5055814;28;20051;-67
2021/12/27 12:06:36;;;;;;;82.20;27.50;;;4.10;99.90;;;;;;5051743;28;20068;-70
2021/12/27 12:09:18;;;;;;;80.72;27.88;;;4.10;99.90;;;;;;5053341;28;20041;-68
2021/12/27 12:12:03;;;;;;;78.18;26.90;;;4.20;99.90;;;;;;5053949;28;20091;-69
2021/12/27 12:14:29;;;;;;;64.30;25.45;;;4.20;99.90;;;;;;5053798;28;20368;-70
2021/12/27 12:16:55;;;;;;;77.40;27.52;;;4.20;99.90;;;;;;5059684;28;20051;-70
2021/12/27 12:19:37;;;;;;;73.28;27.52;;;4.30;99.90;;;;;;5054736;28;20094;-71
2021/12/27 12:22:03;;;;;;;80.53;28.45;;;4.30;99.90;;;;;;5063318;28;20066;-70
2021/12/27 12:24:28;;;;;;;68.80;28.88;;;4.40;99.90;;;;;;5057587;28;20055;-70
2021/12/27 12:27:09;;;;;;;74.75;26.95;;;4.50;99.90;;;;;;5054861;28;20140;-70
2021/12/27 12:29:41;;;;;;;74.10;27.20;;;4.60;99.90;;;;;;5056481;28;20041;-71
2021/12/27 12:32:10;;;;;;;67.32;27.50;;;4.70;99.90;;;;;;5058360;28;20048;-69
2021/12/27 12:34:37;;;;;;;69.15;27.60;;;4.80;99.90;;;;;;5049516;28;20325;-70
2021/12/27 12:37:06;;;;;;;74.82;27.48;;;4.90;99.90;;;;;;5062545;28;20537;-70
2021/12/27 12:39:51;;;;;;;70.22;26.80;;;4.80;99.90;;;;;;5061372;28;20433;-71
2021/12/27 12:42:23;;;;;;;61.65;26.23;;;4.80;99.90;;;;;;5055489;28;20437;-69